createdAt,value
2023-07-29T00:00:32.644Z,1278.1
2023-07-29T00:03:32.864Z,1275.9
2023-07-29T00:06:32.487Z,1276.1
2023-07-29T00:09:32.602Z,1306.8
2023-07-29T00:12:32.511Z,1300.9
2023-07-29T00:15:32.462Z,1287.9
2023-07-29T00:18:32.612Z,1280.5
2023-07-29T00:21:32.508Z,1272.0
2023-07-29T00:24:32.547Z,1264.7
2023-07-29T00:27:32.497Z,1268.2
2023-07-29T00:30:32.626Z,1262.7
2023-07-29T00:33:32.596Z,1262.9
2023-07-29T00:36:32.556Z,1254.5
2023-07-29T00:39:32.533Z,1250.1
2023-07-29T00:42:32.502Z,1253.7
2023-07-29T00:45:32.501Z,1259.1
2023-07-29T00:48:32.792Z,1265.9
2023-07-29T00:51:32.465Z,1270.0
2023-07-29T00:54:32.472Z,1271.6
2023-07-29T00:57:32.446Z,1272.6
2023-07-29T01:00:32.571Z,1279.9
2023-07-29T01:03:32.786Z,1276.5
2023-07-29T01:06:32.497Z,1272.2
2023-07-29T01:09:32.466Z,1263.1
2023-07-29T01:12:32.500Z,1249.2
2023-07-29T01:15:34.559Z,1245.6
2023-07-29T01:18:32.573Z,1227.4
2023-07-29T01:21:32.586Z,1234.5
2023-07-29T01:24:32.526Z,1236.2
2023-07-29T01:27:32.485Z,1241.1
2023-07-29T01:30:34.567Z,1236.3
2023-07-29T01:33:32.539Z,1234.4
2023-07-29T01:36:32.450Z,1228.2
2023-07-29T01:39:32.463Z,1230.5
2023-07-29T01:42:32.498Z,1229.7
2023-07-29T01:45:32.555Z,1231.1
2023-07-29T01:48:32.562Z,1226.0
2023-07-29T01:51:32.549Z,1225.2
2023-07-29T01:54:32.551Z,1221.8
2023-07-29T01:57:32.461Z,1215.0
2023-07-29T02:00:32.570Z,1217.5
2023-07-29T02:03:32.538Z,1220.9
2023-07-29T02:06:32.532Z,1215.1
2023-07-29T02:09:32.480Z,1212.9
2023-07-29T02:12:32.484Z,1209.1
2023-07-29T02:15:32.476Z,1202.7
2023-07-29T02:18:32.563Z,1194.6
2023-07-29T02:21:32.457Z,1195.7
2023-07-29T02:24:32.450Z,1194.8
2023-07-29T02:27:32.457Z,1195.8
2023-07-29T02:30:32.594Z,1196.7
2023-07-29T02:33:32.709Z,1201.2
2023-07-29T02:36:32.481Z,1206.8
2023-07-29T02:39:32.471Z,1217.3
2023-07-29T02:42:32.473Z,1215.7
2023-07-29T02:45:32.515Z,1213.1
2023-07-29T02:48:32.684Z,1209.4
2023-07-29T02:51:32.549Z,1203.1
2023-07-29T02:54:32.508Z,1198.8
2023-07-29T02:57:32.443Z,1188.0
2023-07-29T03:00:32.659Z,1177.8
2023-07-29T03:03:32.768Z,1180.7
2023-07-29T03:06:32.451Z,1173.8
2023-07-29T03:09:32.541Z,1166.5
2023-07-29T03:12:32.472Z,1154.4
2023-07-29T03:15:32.530Z,1162.0
2023-07-29T03:18:32.535Z,1162.2
2023-07-29T03:21:32.443Z,1151.3
2023-07-29T03:24:32.515Z,1156.9
2023-07-29T03:27:32.452Z,1151.1
2023-07-29T03:30:32.518Z,1152.6
2023-07-29T03:33:32.552Z,1147.4
2023-07-29T03:36:32.520Z,1148.9
2023-07-29T03:39:32.534Z,1145.1
2023-07-29T03:42:32.483Z,1142.7
2023-07-29T03:45:32.560Z,1134.5
2023-07-29T03:48:32.643Z,1135.8
2023-07-29T03:51:32.492Z,1130.6
2023-07-29T03:54:32.486Z,1123.6
2023-07-29T03:57:32.425Z,1117.0
2023-07-29T04:00:32.582Z,1121.2
2023-07-29T04:03:32.553Z,1116.8
2023-07-29T04:06:32.478Z,1111.3
2023-07-29T04:09:32.486Z,1096.8
2023-07-29T04:12:32.534Z,1101.9
2023-07-29T04:15:32.482Z,1096.8
2023-07-29T04:18:32.691Z,1084.4
2023-07-29T04:21:32.544Z,1090.4
2023-07-29T04:24:32.449Z,1086.1
2023-07-29T04:27:32.495Z,1091.3
2023-07-29T04:30:32.481Z,1092.2
2023-07-29T04:33:34.529Z,1090.1
2023-07-29T04:36:32.502Z,1087.7
2023-07-29T04:39:32.575Z,1083.0
2023-07-29T04:42:32.487Z,1079.4
2023-07-29T04:45:32.484Z,1082.2
2023-07-29T04:48:32.472Z,1080.4
2023-07-29T04:51:32.540Z,1077.1
2023-07-29T04:54:32.524Z,1069.6
2023-07-29T04:57:32.486Z,1064.2
2023-07-29T05:00:32.617Z,1053.8
2023-07-29T05:03:32.460Z,1067.8
2023-07-29T05:06:32.559Z,1073.2
2023-07-29T05:09:32.466Z,1070.3
2023-07-29T05:12:32.538Z,1068.3
2023-07-29T05:15:32.524Z,1042.7
2023-07-29T05:18:32.542Z,1033.5
2023-07-29T05:21:32.541Z,1038.4
2023-07-29T05:24:32.486Z,1035.8
2023-07-29T05:27:32.492Z,1022.7
2023-07-29T05:30:32.513Z,1030.9
2023-07-29T05:33:32.808Z,1032.1
2023-07-29T05:36:32.519Z,1036.2
2023-07-29T05:39:32.520Z,1030.8
2023-07-29T05:42:32.517Z,1029.8
2023-07-29T05:45:32.508Z,1026.9
2023-07-29T05:48:32.493Z,1026.4
2023-07-29T05:51:32.490Z,1014.9
2023-07-29T05:54:32.495Z,1019.0
2023-07-29T05:57:32.523Z,1009.4
2023-07-29T06:00:32.736Z,1000.0
2023-07-29T06:03:32.685Z,1009.2
2023-07-29T06:06:32.464Z,1013.2
2023-07-29T06:09:32.460Z,1023.2
2023-07-29T06:12:32.467Z,1022.4
2023-07-29T06:15:32.626Z,1017.0
2023-07-29T06:18:32.563Z,1019.4
2023-07-29T06:21:32.445Z,1020.0
2023-07-29T06:24:32.453Z,1013.4
2023-07-29T06:27:32.470Z,1019.9
2023-07-29T06:30:32.612Z,999.4
2023-07-29T06:33:32.510Z,998.3
2023-07-29T06:36:32.540Z,991.6
2023-07-29T06:39:32.446Z,985.5
2023-07-29T06:42:32.492Z,977.5
2023-07-29T06:45:32.476Z,974.0
2023-07-29T06:48:32.615Z,974.1
2023-07-29T06:51:32.525Z,970.3
2023-07-29T06:54:32.526Z,960.9
2023-07-29T06:57:32.458Z,958.3
2023-07-29T07:00:32.688Z,959.1
2023-07-29T07:03:32.660Z,958.2
2023-07-29T07:06:32.533Z,958.5
2023-07-29T07:09:32.497Z,958.0
2023-07-29T07:12:32.494Z,952.7
2023-07-29T07:15:32.507Z,951.1
2023-07-29T07:18:32.521Z,955.5
2023-07-29T07:21:32.489Z,949.2
2023-07-29T07:24:32.502Z,944.3
2023-07-29T07:27:32.497Z,963.8
2023-07-29T07:30:32.614Z,972.4
2023-07-29T07:33:32.511Z,949.0
2023-07-29T07:36:32.540Z,956.3
2023-07-29T07:39:32.466Z,980.9
2023-07-29T07:42:32.468Z,980.0
2023-07-29T07:45:32.497Z,960.5
2023-07-29T07:48:32.508Z,955.2
2023-07-29T07:51:32.504Z,979.2
2023-07-29T07:54:32.503Z,975.5
2023-07-29T07:57:32.533Z,962.8
2023-07-29T08:00:32.533Z,976.6
2023-07-29T08:03:32.593Z,981.1
2023-07-29T08:06:32.512Z,976.1
2023-07-29T08:09:32.520Z,948.9
2023-07-29T08:12:35.151Z,943.8
2023-07-29T08:15:32.478Z,935.1
2023-07-29T08:18:32.524Z,950.2
2023-07-29T08:21:32.506Z,958.6
2023-07-29T08:24:32.463Z,944.9
2023-07-29T08:27:32.464Z,974.6
2023-07-29T08:30:32.519Z,974.7
2023-07-29T08:33:32.526Z,962.3
2023-07-29T08:36:32.459Z,988.6
2023-07-29T08:39:32.521Z,982.5
2023-07-29T08:42:32.658Z,985.0
2023-07-29T08:45:32.471Z,975.7
2023-07-29T08:48:32.509Z,974.7
2023-07-29T08:51:32.497Z,958.0
2023-07-29T08:54:32.535Z,989.5
2023-07-29T08:57:32.473Z,970.9
2023-07-29T09:00:35.298Z,941.7
2023-07-29T09:03:32.686Z,917.0
2023-07-29T09:06:32.508Z,900.3
2023-07-29T09:09:32.483Z,889.4
2023-07-29T09:12:32.522Z,883.1
2023-07-29T09:15:32.523Z,871.1
2023-07-29T09:18:35.304Z,865.6
2023-07-29T09:21:32.481Z,865.6
2023-07-29T09:24:32.504Z,861.2
2023-07-29T09:27:32.419Z,855.8
2023-07-29T09:30:32.610Z,849.4
2023-07-29T09:33:32.614Z,844.0
2023-07-29T09:36:32.534Z,832.0
2023-07-29T09:39:32.460Z,814.3
2023-07-29T09:42:32.469Z,804.5
2023-07-29T09:45:32.450Z,792.0
2023-07-29T09:48:32.505Z,780.1
2023-07-29T09:51:32.487Z,771.4
2023-07-29T09:54:32.603Z,751.7
2023-07-29T09:57:32.533Z,744.9
2023-07-29T10:00:32.759Z,736.6
2023-07-29T10:03:32.711Z,727.4
2023-07-29T10:06:32.490Z,732.7
2023-07-29T10:09:32.505Z,739.6
2023-07-29T10:12:34.427Z,742.8
2023-07-29T10:15:32.479Z,743.5
2023-07-29T10:18:32.505Z,745.5
2023-07-29T10:21:32.493Z,745.0
2023-07-29T10:24:32.474Z,743.2
2023-07-29T10:27:32.519Z,740.8
2023-07-29T10:30:32.501Z,740.4
2023-07-29T10:33:32.745Z,739.5
2023-07-29T10:36:32.480Z,735.8
2023-07-29T10:39:32.491Z,734.1
2023-07-29T10:42:32.465Z,728.2
2023-07-29T10:45:32.494Z,719.7
2023-07-29T10:48:32.604Z,720.7
2023-07-29T10:51:32.496Z,724.0
2023-07-29T10:54:32.492Z,728.4
2023-07-29T10:57:32.518Z,738.2
2023-07-29T11:00:32.527Z,739.4
2023-07-29T11:03:32.502Z,743.5
2023-07-29T11:06:32.617Z,746.5
2023-07-29T11:09:32.441Z,754.0
2023-07-29T11:12:32.483Z,758.5
2023-07-29T11:15:32.547Z,863.5
2023-07-29T11:18:32.590Z,887.1
2023-07-29T11:21:32.449Z,881.1
2023-07-29T11:24:32.553Z,884.6
2023-07-29T11:27:32.535Z,880.8
2023-07-29T11:30:32.577Z,876.4
2023-07-29T11:33:32.759Z,865.1
2023-07-29T11:36:32.508Z,912.8
2023-07-29T11:39:32.484Z,953.7
2023-07-29T11:42:32.566Z,979.5
2023-07-29T11:45:42.468Z,984.2
2023-07-29T11:48:32.611Z,998.6
2023-07-29T11:51:32.479Z,981.1
2023-07-29T11:54:32.485Z,983.9
2023-07-29T11:57:32.455Z,991.1
2023-07-29T12:00:32.938Z,989.2
2023-07-29T12:03:32.677Z,987.6
2023-07-29T12:06:32.483Z,988.4
2023-07-29T12:09:32.450Z,989.1
2023-07-29T12:12:32.463Z,988.1
2023-07-29T12:15:32.458Z,1001.3
2023-07-29T12:18:32.895Z,964.1
2023-07-29T12:21:32.449Z,928.9
2023-07-29T12:24:33.159Z,913.3
2023-07-29T12:27:32.505Z,900.1
2023-07-29T12:30:32.645Z,893.2
2023-07-29T12:33:33.072Z,884.5
2023-07-29T12:36:32.481Z,874.5
2023-07-29T12:39:32.505Z,923.3
2023-07-29T12:42:32.514Z,903.4
2023-07-29T12:45:32.465Z,893.0
2023-07-29T12:48:32.524Z,876.3
2023-07-29T12:51:32.480Z,871.6
2023-07-29T12:54:32.458Z,874.5
2023-07-29T12:57:32.434Z,870.0
2023-07-29T13:00:32.582Z,863.8
2023-07-29T13:03:33.253Z,859.9
2023-07-29T13:06:33.258Z,854.4
2023-07-29T13:09:32.478Z,846.9
2023-07-29T13:12:32.582Z,839.6
2023-07-29T13:15:32.517Z,847.3
2023-07-29T13:18:32.543Z,842.7
2023-07-29T13:21:32.444Z,841.2
2023-07-29T13:24:32.498Z,838.4
2023-07-29T13:27:32.496Z,838.3
2023-07-29T13:30:32.594Z,848.5
2023-07-29T13:33:32.485Z,851.9
2023-07-29T13:36:35.181Z,854.4
2023-07-29T13:39:33.606Z,857.8
2023-07-29T13:42:32.533Z,874.1
2023-07-29T13:45:32.527Z,874.5
2023-07-29T13:48:32.552Z,885.9
2023-07-29T13:51:32.538Z,897.5
2023-07-29T13:54:32.555Z,923.0
2023-07-29T13:57:32.481Z,930.2
2023-07-29T14:00:32.681Z,924.4
2023-07-29T14:03:32.520Z,923.8
2023-07-29T14:06:43.629Z,907.0
2023-07-29T14:09:32.591Z,875.1
2023-07-29T14:12:32.513Z,866.1
2023-07-29T14:15:32.447Z,857.3
2023-07-29T14:18:32.602Z,852.5
2023-07-29T14:21:32.500Z,854.0
2023-07-29T14:24:32.552Z,840.9
2023-07-29T14:27:32.422Z,828.8
2023-07-29T14:30:32.535Z,816.1
2023-07-29T14:33:32.600Z,807.4
2023-07-29T14:36:32.510Z,796.2
2023-07-29T14:39:32.457Z,791.3
2023-07-29T14:42:33.939Z,785.8
2023-07-29T14:45:32.640Z,777.2
2023-07-29T14:48:32.554Z,772.7
2023-07-29T14:51:32.516Z,765.8
2023-07-29T14:54:32.473Z,746.4
2023-07-29T14:57:32.469Z,729.4
2023-07-29T15:00:32.650Z,712.0
2023-07-29T15:03:32.815Z,706.0
2023-07-29T15:06:32.491Z,695.5
2023-07-29T15:09:32.433Z,690.3
2023-07-29T15:12:32.495Z,674.7
2023-07-29T15:15:32.517Z,666.1
2023-07-29T15:18:32.643Z,657.1
2023-07-29T15:21:32.487Z,656.9
2023-07-29T15:24:32.474Z,650.0
2023-07-29T15:27:32.507Z,637.0
2023-07-29T15:30:32.801Z,629.6
2023-07-29T15:33:32.572Z,621.3
2023-07-29T15:36:32.484Z,617.4
2023-07-29T15:39:32.474Z,621.0
2023-07-29T15:42:32.481Z,627.4
2023-07-29T15:45:32.490Z,630.2
2023-07-29T15:48:32.569Z,621.7
2023-07-29T15:51:32.473Z,618.8
2023-07-29T15:54:32.513Z,616.9
2023-07-29T15:57:32.435Z,612.7
2023-07-29T16:00:32.673Z,609.5
2023-07-29T16:03:32.756Z,607.9
2023-07-29T16:06:32.481Z,606.5
2023-07-29T16:09:32.486Z,611.0
2023-07-29T16:12:32.575Z,600.3
2023-07-29T16:15:32.555Z,598.4
2023-07-29T16:18:32.568Z,597.6
2023-07-29T16:21:32.575Z,600.5
2023-07-29T16:24:32.716Z,600.5
2023-07-29T16:27:32.565Z,594.9
2023-07-29T16:30:32.652Z,598.5
2023-07-29T16:33:32.598Z,598.2
2023-07-29T16:36:32.543Z,590.9
2023-07-29T16:39:32.471Z,596.6
2023-07-29T16:45:32.546Z,596.4
2023-07-29T16:48:34.354Z,603.4
2023-07-29T16:51:32.492Z,605.5
2023-07-29T16:54:32.478Z,609.6
2023-07-29T16:57:32.482Z,613.0
2023-07-29T17:00:32.606Z,611.7
2023-07-29T17:03:32.718Z,613.3
2023-07-29T17:06:32.541Z,621.0
2023-07-29T17:09:32.466Z,625.6
2023-07-29T17:12:32.559Z,623.7
2023-07-29T17:15:32.640Z,626.2
2023-07-29T17:18:32.572Z,632.1
2023-07-29T17:21:32.527Z,629.1
2023-07-29T17:24:32.472Z,631.9
2023-07-29T17:27:32.487Z,636.1
2023-07-29T17:30:32.584Z,645.3
2023-07-29T17:33:34.482Z,639.5
2023-07-29T17:36:32.473Z,639.8
2023-07-29T17:39:32.545Z,643.6
2023-07-29T17:42:32.602Z,652.5
2023-07-29T17:45:32.615Z,658.8
2023-07-29T17:48:32.744Z,672.2
2023-07-29T17:51:32.566Z,678.5
2023-07-29T17:54:32.522Z,684.9
2023-07-29T17:57:32.481Z,688.7
2023-07-29T18:00:32.542Z,690.0
2023-07-29T18:03:32.778Z,697.0
2023-07-29T18:06:32.565Z,699.7
2023-07-29T18:09:32.583Z,697.2
2023-07-29T18:12:32.493Z,689.1
2023-07-29T18:15:32.637Z,688.2
2023-07-29T18:18:32.732Z,692.3
2023-07-29T18:21:32.721Z,691.1
2023-07-29T18:24:32.682Z,694.9
2023-07-29T18:27:32.566Z,710.4
2023-07-29T18:30:32.876Z,720.8
2023-07-29T18:33:32.743Z,722.4
2023-07-29T18:36:32.752Z,721.3
2023-07-29T18:39:32.583Z,731.8
2023-07-29T18:42:32.835Z,736.3
2023-07-29T18:45:32.594Z,737.6
2023-07-29T18:48:32.653Z,745.2
2023-07-29T18:51:32.751Z,746.1
2023-07-29T18:54:32.610Z,739.2
2023-07-29T18:57:32.785Z,720.1
2023-07-29T19:00:32.648Z,682.6
2023-07-29T19:03:32.703Z,633.8
2023-07-29T19:06:32.661Z,587.7
2023-07-29T19:09:32.475Z,552.2
2023-07-29T19:12:32.565Z,518.7
2023-07-29T19:15:32.494Z,491.3
2023-07-29T19:18:32.690Z,475.1
2023-07-29T19:21:32.571Z,465.2
2023-07-29T19:24:32.519Z,466.0
2023-07-29T19:27:32.545Z,463.3
2023-07-29T19:30:32.736Z,452.4
2023-07-29T19:33:32.537Z,447.4
2023-07-29T19:36:32.534Z,453.3
2023-07-29T19:39:32.503Z,463.8
2023-07-29T19:42:32.463Z,467.6
2023-07-29T19:45:32.497Z,463.9
2023-07-29T19:48:32.533Z,455.2
2023-07-29T19:51:32.557Z,453.3
2023-07-29T19:54:32.559Z,453.5
2023-07-29T19:57:32.501Z,445.6
2023-07-29T20:00:32.694Z,447.4
2023-07-29T20:03:32.576Z,446.9
2023-07-29T20:06:32.505Z,450.0
2023-07-29T20:09:32.495Z,451.8
2023-07-29T20:12:32.568Z,458.6
2023-07-29T20:15:32.622Z,462.0
2023-07-29T20:18:32.671Z,465.7
2023-07-29T20:21:32.606Z,478.0
2023-07-29T20:24:32.499Z,490.8
2023-07-29T20:27:32.471Z,506.4
2023-07-29T20:30:35.578Z,519.9
2023-07-29T20:33:32.580Z,519.1
2023-07-29T20:36:32.571Z,515.1
2023-07-29T20:39:32.601Z,514.7
2023-07-29T20:42:32.549Z,511.5
2023-07-29T20:45:32.489Z,508.6
2023-07-29T20:48:32.573Z,513.9
2023-07-29T20:51:32.502Z,506.4
2023-07-29T20:54:32.547Z,499.8
2023-07-29T20:57:32.565Z,496.5
2023-07-29T21:00:32.630Z,487.2
2023-07-29T21:03:32.705Z,488.7
2023-07-29T21:06:32.479Z,483.8
2023-07-29T21:09:32.464Z,473.4
2023-07-29T21:12:32.529Z,470.6
2023-07-29T21:15:34.143Z,467.8
2023-07-29T21:18:32.693Z,463.8
2023-07-29T21:21:32.454Z,470.7
2023-07-29T21:24:32.444Z,470.5
2023-07-29T21:27:32.467Z,473.7
2023-07-29T21:30:32.616Z,477.2
2023-07-29T21:33:32.531Z,481.4
2023-07-29T21:36:32.477Z,475.9
2023-07-29T21:39:32.400Z,478.7
2023-07-29T21:42:32.475Z,479.8
2023-07-29T21:45:32.474Z,483.0
2023-07-29T21:48:32.631Z,492.2
2023-07-29T21:51:32.463Z,498.9
2023-07-29T21:54:32.468Z,504.5
2023-07-29T21:57:32.454Z,515.8
2023-07-29T22:00:32.647Z,523.0
2023-07-29T22:03:32.503Z,524.3
2023-07-29T22:06:32.450Z,525.3
2023-07-29T22:09:32.437Z,529.9
2023-07-29T22:12:32.501Z,543.1
2023-07-29T22:15:32.458Z,560.0
2023-07-29T22:18:32.570Z,571.5
2023-07-29T22:21:32.645Z,578.3
2023-07-29T22:24:33.255Z,588.2
2023-07-29T22:27:32.472Z,597.2
2023-07-29T22:30:32.542Z,608.3
2023-07-29T22:33:32.886Z,623.2
2023-07-29T22:36:32.474Z,639.6
2023-07-29T22:39:32.504Z,655.6
2023-07-29T22:42:32.525Z,919.5
2023-07-29T22:45:32.509Z,965.8
2023-07-29T22:48:35.387Z,929.6
2023-07-29T22:51:32.572Z,876.2
2023-07-29T22:54:33.033Z,858.5
2023-07-29T22:57:32.496Z,1820.2
2023-07-29T23:00:32.773Z,1147.2
2023-07-29T23:03:32.829Z,1037.6
2023-07-29T23:06:32.942Z,985.7
2023-07-29T23:09:32.642Z,964.2
2023-07-29T23:12:33.039Z,951.1
2023-07-29T23:15:32.787Z,939.1
2023-07-29T23:18:32.842Z,937.6
2023-07-29T23:21:32.590Z,924.8
2023-07-29T23:24:32.601Z,916.2
2023-07-29T23:27:32.495Z,918.4
2023-07-29T23:30:32.651Z,919.2
2023-07-29T23:33:32.487Z,919.2
2023-07-29T23:36:32.518Z,919.4
2023-07-29T23:39:32.678Z,918.4
2023-07-29T23:42:32.598Z,913.1
2023-07-29T23:45:32.623Z,902.4
2023-07-29T23:48:32.725Z,903.5
2023-07-29T23:51:32.572Z,902.3
2023-07-29T23:54:32.534Z,897.9
2023-07-29T23:57:32.584Z,904.3
